createdAt,value
2018-02-14T00:01:51.689Z,6.43
2018-02-14T00:04:19.417Z,6.83
2018-02-14T00:06:47.549Z,7.27
2018-02-14T00:09:15.868Z,7.10
2018-02-14T00:11:43.752Z,7.23
2018-02-14T00:14:11.948Z,6.73
2018-02-14T00:16:39.908Z,6.90
2018-02-14T00:19:07.748Z,8.13
2018-02-14T00:21:36.028Z,7.80
2018-02-14T00:24:03.910Z,7.10
2018-02-14T00:26:32.068Z,7.63
2018-02-14T00:29:00.030Z,7.80
2018-02-14T00:31:27.990Z,7.10
2018-02-14T00:33:56.207Z,6.73
2018-02-14T00:36:24.347Z,7.63
2018-02-14T00:38:52.909Z,8.07
2018-02-14T00:41:20.806Z,7.20
2018-02-14T00:43:49.606Z,7.10
2018-02-14T00:46:18.047Z,7.93
2018-02-14T00:48:46.327Z,7.03
2018-02-14T00:51:14.305Z,8.37
2018-02-14T00:53:42.906Z,7.87
2018-02-14T00:56:10.905Z,6.47
2018-02-14T00:58:38.765Z,6.67
2018-02-14T01:01:06.846Z,7.37
2018-02-14T01:03:35.009Z,6.43
2018-02-14T01:06:03.269Z,6.50
2018-02-14T01:08:31.126Z,7.40
2018-02-14T01:11:00.028Z,6.97
2018-02-14T01:13:27.906Z,6.77
2018-02-14T01:15:55.726Z,6.70
2018-02-14T01:18:23.747Z,7.00
2018-02-14T01:20:51.586Z,7.50
2018-02-14T01:23:19.466Z,7.37
2018-02-14T01:25:47.366Z,6.60
2018-02-14T01:28:15.286Z,6.73
2018-02-14T01:30:43.126Z,6.83
2018-02-14T01:33:10.966Z,7.10
2018-02-14T01:35:38.786Z,6.10
2018-02-14T01:38:06.641Z,6.77
2018-02-14T01:40:34.446Z,6.83
2018-02-14T01:43:02.387Z,6.60
2018-02-14T01:45:30.148Z,6.43
2018-02-14T01:47:58.087Z,7.70
2018-02-14T01:50:38.826Z,7.93
2018-02-14T01:53:06.654Z,8.03
2018-02-14T01:55:34.482Z,8.10
2018-02-14T01:58:02.587Z,6.60
2018-02-14T02:00:31.869Z,7.53
2018-02-14T02:02:59.787Z,6.50
2018-02-14T02:05:27.686Z,6.20
2018-02-14T02:07:55.547Z,6.63
2018-02-14T02:10:23.427Z,6.20
2018-02-14T02:12:51.487Z,5.90
2018-02-14T02:15:20.106Z,5.67
2018-02-14T02:17:48.206Z,6.67
2018-02-14T02:20:16.186Z,6.90
2018-02-14T02:22:44.026Z,7.43
2018-02-14T02:25:11.986Z,6.13
2018-02-14T02:27:39.930Z,5.63
2018-02-14T02:30:07.747Z,5.73
2018-02-14T02:32:37.015Z,6.67
2018-02-14T02:35:05.227Z,6.83
2018-02-14T02:37:33.517Z,7.03
2018-02-14T02:40:13.466Z,6.87
2018-02-14T02:42:41.426Z,6.90
2018-02-14T02:45:10.006Z,6.63
2018-02-14T02:47:38.206Z,6.93
2018-02-14T02:50:06.446Z,6.97
2018-02-14T02:52:35.586Z,7.03
2018-02-14T02:55:03.546Z,7.27
2018-02-14T02:57:31.586Z,7.20
2018-02-14T02:59:59.426Z,7.00
2018-02-14T03:02:27.366Z,6.67
2018-02-14T03:04:55.426Z,6.87
2018-02-14T03:07:23.498Z,6.93
2018-02-14T03:09:53.307Z,6.33
2018-02-14T03:12:21.207Z,7.33
2018-02-14T03:14:49.067Z,6.63
2018-02-14T03:17:17.266Z,6.30
2018-02-14T03:19:45.326Z,6.60
2018-02-14T03:22:13.166Z,7.17
2018-02-14T03:24:41.127Z,6.37
2018-02-14T03:27:09.396Z,6.63
2018-02-14T03:29:37.286Z,6.93
2018-02-14T03:32:05.126Z,6.90
2018-02-14T03:34:33.186Z,6.93
2018-02-14T03:37:01.326Z,7.00
2018-02-14T03:39:29.246Z,6.33
2018-02-14T03:41:57.406Z,7.40
2018-02-14T03:44:25.786Z,6.53
2018-02-14T03:46:53.626Z,6.83
2018-02-14T03:49:21.467Z,6.73
2018-02-14T03:51:49.367Z,6.03
2018-02-14T03:54:17.206Z,7.30
2018-02-14T03:56:44.946Z,7.03
2018-02-14T03:59:12.966Z,7.20
2018-02-14T04:01:40.926Z,6.63
2018-02-14T04:04:08.666Z,7.03
2018-02-14T04:06:38.128Z,7.33
2018-02-14T04:09:06.226Z,6.67
2018-02-14T04:11:34.866Z,6.63
2018-02-14T04:14:02.950Z,7.53
2018-02-14T04:16:30.866Z,6.93
2018-02-14T04:18:59.546Z,6.60
2018-02-14T04:21:30.527Z,6.57
2018-02-14T04:23:59.006Z,7.40
2018-02-14T04:26:26.806Z,7.50
2018-02-14T04:28:54.626Z,6.17
2018-02-14T04:31:22.446Z,6.70
2018-02-14T04:33:50.347Z,6.83
2018-02-14T04:36:18.166Z,6.13
2018-02-14T04:38:46.048Z,6.50
2018-02-14T04:41:13.886Z,7.20
2018-02-14T04:43:41.766Z,7.13
2018-02-14T04:46:09.607Z,6.37
2018-02-14T04:48:37.766Z,6.97
2018-02-14T04:53:37.566Z,6.70
2018-02-14T04:56:05.606Z,7.03
2018-02-14T04:58:33.806Z,6.70
2018-02-14T05:01:01.947Z,7.33
2018-02-14T05:03:29.886Z,6.77
2018-02-14T05:05:58.027Z,6.60
2018-02-14T05:08:25.887Z,7.20
2018-02-14T05:10:53.848Z,6.43
2018-02-14T05:13:21.620Z,7.17
2018-02-14T05:15:49.546Z,7.23
2018-02-14T05:18:18.327Z,6.77
2018-02-14T05:20:46.167Z,6.67
2018-02-14T05:23:14.087Z,6.50
2018-02-14T05:25:42.408Z,7.60
2018-02-14T05:28:10.526Z,6.50
2018-02-14T05:30:38.554Z,8.17
2018-02-14T05:33:06.546Z,7.63
2018-02-14T05:35:34.486Z,6.50
2018-02-14T05:38:02.405Z,7.53
2018-02-14T05:40:30.226Z,7.23
2018-02-14T05:42:58.006Z,6.73
2018-02-14T05:45:25.925Z,6.97
2018-02-14T05:47:54.545Z,6.77
2018-02-14T05:50:22.347Z,7.80
2018-02-14T05:52:50.247Z,7.37
2018-02-14T05:55:18.045Z,7.20
2018-02-14T05:57:45.845Z,7.33
2018-02-14T06:00:16.119Z,7.30
2018-02-14T06:02:44.455Z,7.00
2018-02-14T06:05:12.287Z,6.93
2018-02-14T06:07:41.348Z,6.77
2018-02-14T06:10:09.248Z,7.40
2018-02-14T06:12:37.109Z,7.70
2018-02-14T06:15:04.849Z,8.00
2018-02-14T06:17:33.148Z,7.07
2018-02-14T06:20:01.249Z,7.17
2018-02-14T06:22:29.089Z,7.40
2018-02-14T06:24:56.929Z,6.87
2018-02-14T06:27:25.049Z,8.33
2018-02-14T06:29:53.248Z,7.83
2018-02-14T06:32:21.159Z,7.57
2018-02-14T06:34:49.169Z,8.93
2018-02-14T06:37:18.050Z,7.70
2018-02-14T06:39:46.069Z,7.83
2018-02-14T06:42:14.948Z,7.43
2018-02-14T06:44:43.588Z,7.17
2018-02-14T06:47:11.550Z,7.17
2018-02-14T06:49:39.710Z,9.73
2018-02-14T06:52:07.970Z,7.40
2018-02-14T06:54:36.189Z,7.73
2018-02-14T06:57:04.389Z,7.73
2018-02-14T06:59:32.257Z,8.47
2018-02-14T07:02:00.089Z,8.53
2018-02-14T07:04:27.907Z,8.27
2018-02-14T07:06:55.768Z,8.33
2018-02-14T07:09:23.609Z,7.57
2018-02-14T07:11:51.769Z,6.50
2018-02-14T07:14:19.649Z,6.87
2018-02-14T07:16:47.410Z,6.90
2018-02-14T07:19:15.371Z,7.33
2018-02-14T07:21:43.267Z,6.60
2018-02-14T07:24:11.427Z,6.30
2018-02-14T07:26:39.242Z,7.60
2018-02-14T07:29:06.923Z,7.40
2018-02-14T07:31:34.579Z,7.87
2018-02-14T07:34:02.317Z,7.73
2018-02-14T07:36:34.567Z,8.13
2018-02-14T07:39:02.957Z,7.90
2018-02-14T07:41:31.340Z,8.43
2018-02-14T07:43:59.750Z,7.80
2018-02-14T07:46:27.771Z,8.40
2018-02-14T07:48:55.690Z,8.27
2018-02-14T07:51:23.870Z,7.60
2018-02-14T07:53:52.031Z,7.53
2018-02-14T07:56:19.827Z,8.03
2018-02-14T07:58:47.536Z,8.23
2018-02-14T08:01:15.446Z,8.57
2018-02-14T08:03:43.667Z,7.00
2018-02-14T08:06:11.388Z,8.67
2018-02-14T08:08:39.287Z,7.60
2018-02-14T08:11:07.409Z,7.50
2018-02-14T08:13:36.227Z,7.90
2018-02-14T08:16:04.107Z,8.63
2018-02-14T08:18:32.567Z,7.83
2018-02-14T08:21:00.427Z,8.17
2018-02-14T08:23:28.708Z,7.10
2018-02-14T08:25:57.568Z,7.70
2018-02-14T08:28:27.346Z,7.40
2018-02-14T08:30:55.206Z,7.87
2018-02-14T08:33:23.047Z,7.53
2018-02-14T08:35:50.768Z,7.23
2018-02-14T08:38:18.846Z,6.83
2018-02-14T08:40:46.746Z,7.87
2018-02-14T08:43:15.887Z,7.97
2018-02-14T08:45:44.426Z,7.90
2018-02-14T08:48:12.769Z,8.20
2018-02-14T08:50:40.728Z,8.37
2018-02-14T08:53:09.886Z,9.73
2018-02-14T08:55:38.168Z,10.30
2018-02-14T08:58:06.048Z,10.73
2018-02-14T09:00:34.146Z,10.43
2018-02-14T09:03:01.968Z,12.23
2018-02-14T09:05:29.749Z,12.43
2018-02-14T09:07:57.509Z,13.57
2018-02-14T09:10:25.489Z,11.83
2018-02-14T09:12:53.226Z,12.50
2018-02-14T09:15:21.086Z,11.87
2018-02-14T09:17:48.865Z,12.13
2018-02-14T09:20:16.627Z,12.93
2018-02-14T09:22:44.365Z,13.00
2018-02-14T09:25:12.925Z,12.77
2018-02-14T09:27:40.765Z,12.20
2018-02-14T09:30:08.925Z,11.83
2018-02-14T09:32:36.705Z,12.60
2018-02-14T09:35:04.346Z,11.87
2018-02-14T09:37:32.105Z,12.37
2018-02-14T09:39:59.888Z,12.40
2018-02-14T09:42:27.645Z,11.63
2018-02-14T09:44:55.412Z,11.60
2018-02-14T09:47:23.186Z,12.30
2018-02-14T09:49:51.867Z,11.87
2018-02-14T09:52:19.565Z,12.00
2018-02-14T09:54:47.345Z,12.13
2018-02-14T09:57:15.107Z,12.43
2018-02-14T09:59:43.007Z,12.30
2018-02-14T10:02:10.907Z,13.93
2018-02-14T10:04:38.607Z,12.40
2018-02-14T10:07:06.391Z,12.17
2018-02-14T10:09:34.331Z,12.10
2018-02-14T10:12:04.846Z,12.60
2018-02-14T10:14:32.687Z,11.73
2018-02-14T10:17:00.567Z,10.90
2018-02-14T10:19:28.414Z,10.73
2018-02-14T10:21:56.172Z,10.23
2018-02-14T10:24:24.147Z,9.20
2018-02-14T10:26:52.649Z,8.80
2018-02-14T10:29:20.568Z,9.40
2018-02-14T10:31:48.447Z,9.30
2018-02-14T10:34:16.335Z,10.40
2018-02-14T10:36:44.467Z,10.17
2018-02-14T10:39:12.330Z,7.80
2018-02-14T10:41:40.487Z,7.20
2018-02-14T10:44:08.370Z,7.93
2018-02-14T10:46:36.326Z,7.10
2018-02-14T10:51:36.549Z,6.43
2018-02-14T10:54:04.487Z,6.97
2018-02-14T10:56:32.288Z,6.77
2018-02-14T10:59:00.068Z,6.97
2018-02-14T11:01:33.551Z,6.43
2018-02-14T11:07:11.006Z,6.60
2018-02-14T11:09:39.929Z,6.47
2018-02-14T11:12:07.847Z,6.67
2018-02-14T11:14:35.748Z,6.47
2018-02-14T11:17:03.847Z,6.83
2018-02-14T11:19:31.687Z,7.47
2018-02-14T11:21:59.506Z,6.80
2018-02-14T11:24:27.406Z,7.50
2018-02-14T11:26:55.347Z,6.40
2018-02-14T11:29:23.168Z,6.30
2018-02-14T11:31:51.206Z,6.33
2018-02-14T11:34:19.468Z,6.27
2018-02-14T11:36:47.367Z,5.20
2018-02-14T11:39:15.267Z,6.40
2018-02-14T11:41:43.047Z,6.63
2018-02-14T11:44:10.867Z,6.00
2018-02-14T11:46:38.947Z,6.47
2018-02-14T11:49:06.787Z,6.27
2018-02-14T11:51:34.708Z,6.57
2018-02-14T11:54:02.730Z,5.93
2018-02-14T11:56:30.526Z,6.47
2018-02-14T11:58:58.306Z,6.50
2018-02-14T12:01:26.134Z,7.50
2018-02-14T12:03:53.906Z,6.60
2018-02-14T12:06:21.667Z,6.97
2018-02-14T12:08:50.206Z,6.53
2018-02-14T12:11:18.768Z,6.47
2018-02-14T12:13:46.488Z,6.83
2018-02-14T12:16:14.567Z,7.23
2018-02-14T12:18:42.371Z,6.40
2018-02-14T12:21:10.667Z,6.17
2018-02-14T12:23:38.845Z,6.47
2018-02-14T12:26:06.686Z,6.07
2018-02-14T12:28:35.227Z,6.27
2018-02-14T12:31:03.868Z,7.00
2018-02-14T12:33:31.746Z,6.33
2018-02-14T12:35:59.588Z,6.63
2018-02-14T12:38:27.528Z,6.63
2018-02-14T12:40:55.311Z,7.10
2018-02-14T12:43:23.051Z,6.93
2018-02-14T12:45:50.889Z,6.80
2018-02-14T12:48:20.986Z,6.57
2018-02-14T12:50:48.766Z,6.60
2018-02-14T12:55:48.567Z,6.50
2018-02-14T12:58:16.387Z,6.90
2018-02-14T13:00:44.231Z,5.63
2018-02-14T13:03:12.132Z,5.80
2018-02-14T13:05:40.689Z,6.10
2018-02-14T13:08:08.608Z,5.50
2018-02-14T13:10:36.528Z,6.43
2018-02-14T13:13:04.511Z,6.20
2018-02-14T13:15:32.828Z,6.50
2018-02-14T13:18:00.694Z,6.97
2018-02-14T13:20:28.708Z,6.03
2018-02-14T13:22:56.548Z,6.13
2018-02-14T13:25:24.409Z,5.40
2018-02-14T13:27:52.610Z,6.23
2018-02-14T13:30:20.568Z,5.93
2018-02-14T13:32:48.389Z,6.27
2018-02-14T13:35:16.771Z,6.20
2018-02-14T13:37:44.688Z,6.63
2018-02-14T13:40:12.428Z,5.57
2018-02-14T13:42:40.608Z,6.30
2018-02-14T13:45:08.768Z,6.77
2018-02-14T13:47:37.368Z,6.07
2018-02-14T13:50:05.194Z,7.33
2018-02-14T13:55:04.869Z,6.37
2018-02-14T13:57:32.788Z,6.23
2018-02-14T14:00:00.809Z,6.30
2018-02-14T14:02:28.668Z,5.80
2018-02-14T14:04:56.648Z,5.80
2018-02-14T14:07:24.528Z,6.83
2018-02-14T14:09:52.408Z,6.07
2018-02-14T14:12:20.668Z,7.50
2018-02-14T14:14:48.389Z,7.50
2018-02-14T14:17:16.168Z,7.23
2018-02-14T14:19:44.390Z,7.37
2018-02-14T14:22:12.667Z,7.60
2018-02-14T14:24:40.525Z,6.87
2018-02-14T14:27:08.291Z,7.20
2018-02-14T14:29:36.467Z,7.30
2018-02-14T14:32:04.225Z,7.70
2018-02-14T14:34:32.206Z,7.80
2018-02-14T14:37:00.186Z,7.80
2018-02-14T14:39:28.005Z,7.37
2018-02-14T14:41:55.805Z,6.60
2018-02-14T14:44:23.626Z,7.07
2018-02-14T14:46:51.466Z,7.07
2018-02-14T14:49:19.505Z,7.60
2018-02-14T14:51:47.446Z,7.93
2018-02-14T14:54:15.186Z,7.73
2018-02-14T14:56:44.066Z,7.90
2018-02-14T14:59:12.021Z,7.70
2018-02-14T15:01:39.806Z,7.43
2018-02-14T15:04:08.066Z,8.43
2018-02-14T15:06:35.965Z,8.50
2018-02-14T15:09:03.968Z,10.60
2018-02-14T15:11:32.428Z,12.07
2018-02-14T15:14:00.207Z,7.33
2018-02-14T15:16:28.749Z,8.47
2018-02-14T15:18:56.646Z,8.47
2018-02-14T15:21:24.489Z,7.70
2018-02-14T15:23:52.607Z,8.43
2018-02-14T15:26:20.787Z,7.87
2018-02-14T15:28:49.645Z,7.40
2018-02-14T15:31:17.486Z,8.60
2018-02-14T15:33:45.232Z,7.27
2018-02-14T15:36:13.395Z,7.33
2018-02-14T15:38:41.891Z,8.03
2018-02-14T15:41:10.092Z,7.73
2018-02-14T15:43:38.232Z,7.23
2018-02-14T15:46:06.695Z,6.37
2018-02-14T15:48:34.711Z,7.10
2018-02-14T15:51:02.472Z,7.03
2018-02-14T15:53:30.651Z,7.20
2018-02-14T15:55:58.772Z,6.40
2018-02-14T15:58:26.631Z,7.33
2018-02-14T16:00:55.767Z,6.43
2018-02-14T16:03:23.692Z,6.73
2018-02-14T16:05:51.799Z,7.40
2018-02-14T16:08:19.831Z,7.17
2018-02-14T16:10:47.749Z,6.97
2018-02-14T16:13:15.828Z,7.07
2018-02-14T16:15:44.146Z,7.03
2018-02-14T16:18:11.998Z,8.60
2018-02-14T16:20:39.849Z,8.70
2018-02-14T16:23:07.717Z,6.73
2018-02-14T16:25:35.609Z,7.13
2018-02-14T16:28:03.508Z,7.40
2018-02-14T16:30:31.331Z,8.07
2018-02-14T16:33:00.011Z,7.97
2018-02-14T16:35:28.668Z,7.40
2018-02-14T16:40:28.770Z,8.77
2018-02-14T16:42:56.709Z,9.40
2018-02-14T16:45:24.630Z,10.83
2018-02-14T16:47:52.872Z,10.27
2018-02-14T16:50:20.749Z,10.67
2018-02-14T16:52:48.933Z,10.83
2018-02-14T16:55:16.888Z,10.37
2018-02-14T16:57:44.708Z,10.10
2018-02-14T17:00:13.014Z,7.53
2018-02-14T17:02:42.377Z,7.10
2018-02-14T17:05:10.152Z,7.80
2018-02-14T17:07:38.312Z,7.97
2018-02-14T17:10:06.234Z,8.17
2018-02-14T17:12:33.991Z,8.07
2018-02-14T17:15:01.912Z,9.07
2018-02-14T17:17:29.952Z,11.90
2018-02-14T17:19:58.492Z,13.97
2018-02-14T17:22:27.712Z,11.00
2018-02-14T17:24:55.651Z,10.40
2018-02-14T17:27:23.812Z,9.73
2018-02-14T17:29:51.712Z,8.37
2018-02-14T17:32:19.604Z,9.73
2018-02-14T17:34:47.391Z,14.43
2018-02-14T17:37:16.712Z,22.63
2018-02-14T17:39:44.713Z,23.17
2018-02-14T17:42:14.008Z,17.10
2018-02-14T17:44:41.889Z,14.60
2018-02-14T17:47:09.879Z,11.40
2018-02-14T17:49:37.752Z,10.30
2018-02-14T17:54:37.868Z,10.63
2018-02-14T17:57:05.937Z,8.90
2018-02-14T17:59:33.829Z,9.03
2018-02-14T18:02:02.207Z,9.57
2018-02-14T18:04:30.174Z,10.43
2018-02-14T18:06:57.887Z,25.03
2018-02-14T18:09:25.728Z,24.27
2018-02-14T18:11:53.848Z,26.53
2018-02-14T18:14:22.469Z,15.27
2018-02-14T18:16:50.707Z,12.07
2018-02-14T18:19:18.727Z,10.87
2018-02-14T18:21:46.589Z,13.93
2018-02-14T18:24:14.592Z,11.43
2018-02-14T18:26:42.567Z,7.70
2018-02-14T18:29:12.255Z,7.00
2018-02-14T18:31:40.389Z,7.97
2018-02-14T18:34:11.120Z,7.90
2018-02-14T18:36:39.327Z,8.57
2018-02-14T18:39:07.208Z,8.47
2018-02-14T18:41:35.006Z,8.27
2018-02-14T18:44:02.987Z,8.37
2018-02-14T18:46:30.896Z,8.87
2018-02-14T18:48:58.808Z,8.20
2018-02-14T18:51:26.730Z,8.53
2018-02-14T18:53:54.928Z,8.80
2018-02-14T18:56:23.127Z,9.30
2018-02-14T18:58:51.012Z,9.67
2018-02-14T19:01:18.930Z,10.10
2018-02-14T19:03:46.970Z,9.23
2018-02-14T19:06:14.928Z,10.00
2018-02-14T19:08:43.211Z,10.90
2018-02-14T19:11:11.251Z,11.10
2018-02-14T19:13:39.171Z,11.33
2018-02-14T19:16:07.174Z,10.50
2018-02-14T19:18:35.101Z,10.37
2018-02-14T19:21:03.114Z,10.93
2018-02-14T19:23:31.272Z,9.60
2018-02-14T19:25:59.290Z,10.13
2018-02-14T19:28:27.110Z,10.37
2018-02-14T19:30:55.289Z,9.80
2018-02-14T19:33:23.490Z,9.60
2018-02-14T19:35:52.011Z,10.27
2018-02-14T19:38:19.852Z,10.03
2018-02-14T19:40:47.652Z,10.37
2018-02-14T19:43:16.130Z,10.50
2018-02-14T19:48:16.057Z,10.43
2018-02-14T19:50:43.891Z,9.43
2018-02-14T19:53:12.012Z,10.77
2018-02-14T19:55:39.828Z,9.60
2018-02-14T19:58:07.908Z,10.47
2018-02-14T20:00:36.130Z,10.70
2018-02-14T20:03:04.110Z,11.50
2018-02-14T20:05:32.252Z,11.17
2018-02-14T20:08:00.372Z,11.60
2018-02-14T20:10:28.590Z,11.90
2018-02-14T20:12:56.570Z,11.67
2018-02-14T20:15:24.988Z,11.30
2018-02-14T20:17:52.835Z,11.63
2018-02-14T20:20:20.747Z,11.37
2018-02-14T20:22:49.048Z,12.80
2018-02-14T20:25:18.810Z,12.60
2018-02-14T20:27:46.788Z,13.13
2018-02-14T20:30:14.949Z,12.87
2018-02-14T20:32:43.612Z,13.30
2018-02-14T20:35:11.729Z,38.40
2018-02-14T20:37:39.769Z,32.43
2018-02-14T20:40:07.928Z,30.33
2018-02-14T20:42:35.807Z,45.03
2018-02-14T20:45:03.637Z,47.77
2018-02-14T20:47:31.728Z,51.17
2018-02-14T20:49:59.887Z,68.97
2018-02-14T20:52:29.447Z,80.77
2018-02-14T20:54:57.327Z,100.17
2018-02-14T20:57:25.209Z,186.77
2018-02-14T20:59:53.127Z,79.73
2018-02-14T21:02:21.092Z,21.33
2018-02-14T21:04:49.273Z,13.47
2018-02-14T21:07:17.390Z,11.57
2018-02-14T21:12:17.552Z,9.83
2018-02-14T21:14:45.372Z,9.93
2018-02-14T21:17:13.393Z,10.47
2018-02-14T21:19:41.233Z,9.80
2018-02-14T21:22:09.011Z,10.20
2018-02-14T21:24:37.592Z,10.70
2018-02-14T21:27:05.570Z,9.83
2018-02-14T21:29:33.770Z,10.47
2018-02-14T21:32:01.590Z,18.67
2018-02-14T21:34:29.431Z,26.03
2018-02-14T21:36:57.607Z,44.17
2018-02-14T21:39:26.156Z,39.87
2018-02-14T21:41:55.170Z,13.27
2018-02-14T21:44:23.450Z,9.40
2018-02-14T21:46:51.688Z,9.53
2018-02-14T21:49:19.972Z,14.97
2018-02-14T21:51:48.468Z,14.97
2018-02-14T21:54:17.216Z,9.77
2018-02-14T21:56:46.270Z,9.50
2018-02-14T21:59:14.488Z,8.67
2018-02-14T22:01:42.368Z,10.03
2018-02-14T22:04:10.526Z,9.47
2018-02-14T22:06:38.370Z,9.93
2018-02-14T22:09:06.289Z,10.00
2018-02-14T22:11:34.570Z,10.13
2018-02-14T22:14:03.089Z,10.33
2018-02-14T22:16:31.021Z,9.80
2018-02-14T22:18:59.032Z,10.00
2018-02-14T22:21:27.029Z,10.43
2018-02-14T22:23:54.949Z,9.83
2018-02-14T22:26:23.352Z,10.47
2018-02-14T22:28:51.209Z,9.87
2018-02-14T22:31:19.017Z,9.77
2018-02-14T22:33:46.951Z,11.10
2018-02-14T22:36:14.811Z,12.47
2018-02-14T22:38:42.589Z,11.13
2018-02-14T22:41:10.430Z,11.53
2018-02-14T22:43:39.226Z,11.30
2018-02-14T22:46:07.071Z,10.53
2018-02-14T22:48:35.451Z,11.77
2018-02-14T22:51:03.331Z,11.10
2018-02-14T22:53:31.146Z,11.83
2018-02-14T22:55:59.768Z,11.30
2018-02-14T22:58:27.607Z,10.50
2018-02-14T23:00:55.425Z,12.60
2018-02-14T23:03:23.312Z,13.47
2018-02-14T23:05:51.425Z,11.80
2018-02-14T23:08:19.268Z,11.73
2018-02-14T23:10:47.153Z,12.37
2018-02-14T23:13:15.067Z,11.67
2018-02-14T23:15:42.947Z,12.43
2018-02-14T23:18:10.951Z,11.73
2018-02-14T23:20:39.587Z,12.90
2018-02-14T23:23:07.488Z,11.00
2018-02-14T23:25:35.447Z,11.47
2018-02-14T23:28:03.227Z,11.70
2018-02-14T23:30:31.327Z,11.50
2018-02-14T23:32:59.535Z,10.63
2018-02-14T23:35:27.427Z,10.50
2018-02-14T23:37:55.288Z,10.63
2018-02-14T23:40:23.287Z,11.27
2018-02-14T23:42:51.111Z,11.37
2018-02-14T23:45:19.327Z,11.93
2018-02-14T23:47:49.223Z,10.60
2018-02-14T23:50:17.248Z,10.40
2018-02-14T23:52:45.166Z,10.83
2018-02-14T23:55:12.986Z,12.17
2018-02-14T23:57:41.087Z,10.90
